Time;durP1;ratioP1;P1;durP2;ratioP2;P2;SDS_P1;SDS_P2;PMS_P1;PMS_P2;Temp;Humidity;BMP_temperature;BMP_pressure;BME280_temperature;BME280_humidity;BME280_pressure;Samples;Min_cycle;Max_cycle;Signal;HPM_P1;HPM_P2
2023/07/20 00:01:44;;;;;;;1999.90;999.90;;;;;;;23.06;100.00;95115.09;5083742;28;20220;-71
2023/07/20 00:04:11;;;;;;;1999.90;999.90;;;;;;;23.06;100.00;95114.31;5084362;28;20177;-71
2023/07/20 00:06:40;;;;;;;1999.90;999.90;;;;;;;23.07;100.00;95110.25;5083902;28;20169;-70
2023/07/20 00:09:08;;;;;;;1999.90;999.90;;;;;;;23.12;100.00;95117.94;5083776;28;20191;-70
2023/07/20 00:11:37;;;;;;;1999.90;999.90;;;;;;;23.08;100.00;95114.59;5084312;28;20177;-72
2023/07/20 00:14:04;;;;;;;1999.90;999.90;;;;;;;23.03;100.00;95102.13;5083702;28;20177;-72
2023/07/20 00:16:29;;;;;;;1999.90;999.90;;;;;;;22.96;100.00;95096.22;5083739;28;20196;-72
2023/07/20 00:18:55;;;;;;;1999.90;999.90;;;;;;;22.95;100.00;95103.06;5083725;28;20169;-72
2023/07/20 00:21:20;;;;;;;1999.90;999.90;;;;;;;22.86;100.00;95106.75;5084217;28;20209;-70
2023/07/20 00:23:45;;;;;;;1999.90;999.90;;;;;;;22.80;100.00;95102.38;5084118;28;20176;-70
2023/07/20 00:26:11;;;;;;;1999.90;999.90;;;;;;;22.74;100.00;95104.31;5083593;28;20169;-71
2023/07/20 00:28:36;;;;;;;1999.90;999.90;;;;;;;22.65;100.00;95102.44;5084121;28;20173;-70
2023/07/20 00:31:02;;;;;;;1999.90;999.90;;;;;;;22.65;100.00;95102.44;5083626;28;20177;-70
2023/07/20 00:33:28;;;;;;;1999.90;999.90;;;;;;;22.65;100.00;95102.44;5084018;28;20181;-72
2023/07/20 00:35:53;;;;;;;1999.90;999.90;;;;;;;22.53;100.00;95117.50;5083614;28;20180;-71
2023/07/20 00:38:19;;;;;;;1999.90;999.90;;;;;;;22.57;100.00;95122.88;5083846;28;20177;-71
2023/07/20 00:40:44;;;;;;;1999.90;999.90;;;;;;;22.58;100.00;95124.41;5087589;28;20173;-71
2023/07/20 00:43:10;;;;;;;1999.90;999.90;;;;;;;22.55;100.00;95130.94;5087909;28;20205;-71
2023/07/20 00:45:36;;;;;;;1999.90;999.90;;;;;;;22.54;100.00;95134.97;5087308;28;20219;-71
2023/07/20 00:48:03;;;;;;;1999.90;999.90;;;;;;;22.62;100.00;95114.59;5087593;28;20169;-71
2023/07/20 00:50:30;;;;;;;1999.90;999.90;;;;;;;22.52;100.00;95126.34;5087198;28;20191;-73
2023/07/20 00:52:56;;;;;;;1999.90;999.90;;;;;;;22.58;100.00;95113.25;5086964;28;20237;-73
2023/07/20 00:55:23;;;;;;;1999.90;999.90;;;;;;;22.59;100.00;95125.91;5087232;28;20176;-74
2023/07/20 00:57:50;;;;;;;1999.90;999.90;;;;;;;22.65;100.00;95123.97;5087540;28;20169;-73
2023/07/20 01:00:15;;;;;;;1999.90;999.90;;;;;;;22.67;100.00;95122.22;5087104;28;20189;-73
2023/07/20 01:02:41;;;;;;;1999.90;999.90;;;;;;;22.69;100.00;95132.88;5086890;28;20221;-73
2023/07/20 01:05:07;;;;;;;1999.90;999.90;;;;;;;22.71;100.00;95138.72;5086998;28;20196;-73
2023/07/20 01:07:36;;;;;;;1999.90;999.90;;;;;;;22.74;100.00;95143.31;5087216;28;20222;-71
2023/07/20 01:10:16;;;;;;;1999.90;999.90;;;;;;;22.75;100.00;95128.13;5087021;28;20180;-71
2023/07/20 01:12:46;;;;;;;1999.90;999.90;;;;;;;22.72;100.00;95124.31;5087426;28;20210;-72
2023/07/20 01:15:12;;;;;;;1999.90;999.90;;;;;;;22.74;100.00;95126.59;5087487;28;20174;-72
2023/07/20 01:17:38;;;;;;;1999.90;999.90;;;;;;;22.70;100.00;95120.50;5087334;28;20176;-72
2023/07/20 01:20:04;;;;;;;1999.90;999.90;;;;;;;22.64;100.00;95117.63;5086889;28;20169;-70
2023/07/20 01:23:15;;;;;;;1999.90;999.90;;;;;;;22.64;100.00;95114.06;5086649;28;20193;-74
2023/07/20 01:26:18;;;;;;;1999.90;999.90;;;;;;;22.63;100.00;95121.69;5086935;28;20245;-72
2023/07/20 01:29:11;;;;;;;1999.90;999.90;;;;;;;22.48;100.00;95132.88;5086681;28;20169;-73
2023/07/20 01:31:38;;;;;;;1999.90;999.90;;;;;;;22.48;100.00;95118.94;5087048;28;20237;-72
2023/07/20 01:34:06;;;;;;;1999.90;999.90;;;;;;;22.51;100.00;95124.81;5087096;28;20180;-73
2023/07/20 01:36:35;;;;;;;1999.90;999.90;;;;;;;22.51;100.00;95122.03;5086406;28;20173;-71
2023/07/20 01:39:00;;;;;;;1999.90;999.90;;;;;;;22.52;100.00;95126.34;5086819;28;20197;-72
2023/07/20 01:41:26;;;;;;;1999.90;999.90;;;;;;;22.50;100.00;95123.28;5086268;28;20203;-72
2023/07/20 01:43:51;;;;;;;1999.90;999.90;;;;;;;22.40;100.00;95125.41;5086946;28;20177;-71
2023/07/20 01:46:16;;;;;;;1999.90;999.90;;;;;;;22.42;100.00;95134.81;5086589;28;20181;-71
2023/07/20 01:48:42;;;;;;;1999.90;999.90;;;;;;;22.43;100.00;95136.34;5086330;28;20177;-70
2023/07/20 01:51:07;;;;;;;1999.90;999.90;;;;;;;22.45;100.00;95125.50;5085579;28;20208;-72
2023/07/20 01:53:33;;;;;;;1999.90;999.90;;;;;;;22.46;100.00;95134.59;5085810;28;20221;-72
2023/07/20 01:55:58;;;;;;;1999.90;999.90;;;;;;;22.48;100.00;95139.69;5086179;28;20180;-70
2023/07/20 01:58:24;;;;;;;1999.90;999.90;;;;;;;22.42;100.00;95134.81;5086517;28;20169;-73
2023/07/20 02:00:50;;;;;;;1999.90;999.90;;;;;;;22.38;100.00;95128.69;5086461;28;20177;-70
2023/07/20 02:03:15;;;;;;;1999.90;999.90;;;;;;;22.34;100.00;95128.13;5085896;28;20205;-69
2023/07/20 02:05:43;;;;;;;1999.90;999.90;;;;;;;22.34;100.00;95132.91;5085922;28;20177;-70
2023/07/20 02:08:09;;;;;;;1999.90;999.90;;;;;;;22.29;100.00;95133.63;5085919;28;20183;-71
2023/07/20 02:10:35;;;;;;;1999.90;999.90;;;;;;;22.30;100.00;95138.66;5086540;28;20173;-71
2023/07/20 02:13:00;;;;;;;1999.90;999.90;;;;;;;22.28;100.00;95134.84;5085827;28;20183;-73
2023/07/20 02:15:25;;;;;;;1999.90;999.90;;;;;;;22.27;100.00;95142.44;5086099;28;20181;-74
2023/07/20 02:17:51;;;;;;;1999.90;999.90;;;;;;;22.21;100.00;95141.59;5086278;28;20232;-73
2023/07/20 02:20:17;;;;;;;1999.90;999.90;;;;;;;22.16;100.00;95139.50;5086279;28;20177;-72
2023/07/20 02:22:42;;;;;;;1999.90;999.90;;;;;;;22.16;100.00;95125.59;5086077;28;20307;-73
2023/07/20 02:25:08;;;;;;;1999.90;999.90;;;;;;;22.15;100.00;95134.44;5085655;28;20179;-73
2023/07/20 02:27:34;;;;;;;1999.90;999.90;;;;;;;22.14;100.00;95133.66;5086289;28;20169;-73
2023/07/20 02:29:59;;;;;;;1999.90;999.90;;;;;;;22.10;100.00;95141.44;5085425;28;20268;-73
2023/07/20 02:32:25;;;;;;;1999.90;999.90;;;;;;;22.08;100.00;95149.50;5085659;28;20173;-71
2023/07/20 02:34:50;;;;;;;1999.90;999.90;;;;;;;22.10;100.00;95135.09;5085591;28;20196;-72
2023/07/20 02:37:16;;;;;;;1999.90;999.90;;;;;;;22.09;100.00;95134.34;5086176;28;20207;-73
2023/07/20 02:39:42;;;;;;;1999.90;999.90;;;;;;;22.08;100.00;95132.78;5085220;28;20266;-71
2023/07/20 02:42:07;;;;;;;1999.90;999.90;;;;;;;22.08;100.00;95126.50;5085665;28;20208;-71
2023/07/20 02:44:32;;;;;;;1999.90;999.90;;;;;;;22.02;100.00;95131.19;5085628;28;20181;-73
2023/07/20 02:46:58;;;;;;;1999.90;999.90;;;;;;;21.98;100.00;95134.19;5085104;28;20219;-72
2023/07/20 02:49:23;;;;;;;1999.90;999.90;;;;;;;21.98;100.00;95134.19;5084983;28;20174;-72
2023/07/20 02:51:48;;;;;;;1999.90;999.90;;;;;;;21.49;100.00;95136.91;5085051;28;20173;-72
2023/07/20 02:54:15;;;;;;;1999.90;999.90;;;;;;;21.38;100.00;95145.06;5084942;28;20221;-71
2023/07/20 02:56:40;;;;;;;1999.90;999.90;;;;;;;21.36;100.00;95144.00;5085462;28;20174;-71
2023/07/20 02:59:05;;;;;;;1999.90;999.90;;;;;;;21.78;100.00;95161.94;5084750;28;20196;-71
2023/07/20 03:01:31;;;;;;;1999.90;999.90;;;;;;;21.76;100.00;95169.22;5084417;28;20193;-73
2023/07/20 03:03:56;;;;;;;1999.90;999.90;;;;;;;21.60;100.00;95164.88;5084716;28;20210;-72
2023/07/20 03:06:22;;;;;;;1999.90;999.90;;;;;;;21.15;100.00;95162.56;5085049;28;20169;-73
2023/07/20 03:08:48;;;;;;;1999.90;999.90;;;;;;;20.82;100.00;95152.81;5084276;28;20169;-73
2023/07/20 03:11:18;;;;;;;1999.90;999.90;;;;;;;20.48;100.00;95143.06;5085116;28;20177;-73
2023/07/20 03:13:44;;;;;;;1999.90;999.90;;;;;;;20.49;100.00;95133.50;5084568;28;20169;-73
2023/07/20 03:16:11;;;;;;;1999.90;999.90;;;;;;;20.31;100.00;95144.72;5085065;28;20244;-73
2023/07/20 03:18:39;;;;;;;1999.90;999.90;;;;;;;20.19;100.00;95140.16;5085214;28;20181;-73
2023/07/20 03:21:07;;;;;;;1999.90;999.90;;;;;;;20.13;100.00;95144.81;5084642;28;20185;-72
2023/07/20 03:23:33;;;;;;;1999.90;999.90;;;;;;;20.11;100.00;95138.22;5084414;28;20183;-73
2023/07/20 03:25:58;;;;;;;1999.90;999.90;;;;;;;20.09;100.00;95143.41;5084460;28;20177;-72
2023/07/20 03:28:24;;;;;;;1999.90;999.90;;;;;;;20.04;100.00;95147.63;5084867;28;20177;-72
2023/07/20 03:30:58;;;;;;;1999.90;999.90;;;;;;;20.08;100.00;95159.31;5084640;28;20182;-73
2023/07/20 03:33:29;;;;;;;1999.90;999.90;;;;;;;20.06;100.00;95164.53;5084991;28;20208;-73
2023/07/20 03:35:55;;;;;;;1999.90;999.90;;;;;;;19.98;100.00;95143.16;5084732;28;20177;-72
2023/07/20 03:38:21;;;;;;;1999.90;999.90;;;;;;;19.79;100.00;95148.03;5084697;28;20183;-73
2023/07/20 03:40:54;;;;;;;1999.90;999.90;;;;;;;19.68;100.00;95131.16;5084210;28;20197;-73
2023/07/20 03:43:22;;;;;;;1999.90;999.90;;;;;;;19.49;100.00;95124.91;5083995;28;20220;-73
2023/07/20 03:45:48;;;;;;;1999.90;999.90;;;;;;;19.48;100.00;95117.84;5084072;28;20200;-73
2023/07/20 03:48:18;;;;;;;1999.90;999.90;;;;;;;19.34;100.00;95117.75;5083984;28;20231;-71
2023/07/20 03:50:45;;;;;;;1999.90;999.90;;;;;;;19.35;100.00;95108.19;5084864;28;20240;-73
2023/07/20 03:53:11;;;;;;;1999.90;999.90;;;;;;;19.36;100.00;95109.72;5083888;28;20252;-72
2023/07/20 03:55:37;;;;;;;1999.90;999.90;;;;;;;19.36;100.00;95109.72;5083567;28;20172;-72
2023/07/20 03:58:03;;;;;;;1999.90;999.90;;;;;;;19.37;100.00;95109.25;5084434;28;20184;-72
2023/07/20 04:00:28;;;;;;;1999.90;999.90;;;;;;;19.42;100.00;95119.69;5083920;28;20251;-72
2023/07/20 04:02:54;;;;;;;1999.90;999.90;;;;;;;19.42;100.00;95130.03;5083736;28;20197;-72
2023/07/20 04:05:19;;;;;;;1999.90;999.90;;;;;;;19.34;100.00;95134.38;5083830;28;20173;-72
2023/07/20 04:07:44;;;;;;;1999.90;999.90;;;;;;;19.36;100.00;95129.09;5083744;28;20173;-70
2023/07/20 04:10:10;;;;;;;1999.90;999.90;;;;;;;19.40;100.00;95132.47;5083850;28;20173;-72
2023/07/20 04:12:35;;;;;;;1999.90;999.90;;;;;;;19.41;100.00;95134.78;5083642;28;20237;-71
2023/07/20 04:15:01;;;;;;;1999.90;999.90;;;;;;;19.49;100.00;95135.22;5083115;28;20174;-71
2023/07/20 04:17:26;;;;;;;1999.90;999.90;;;;;;;19.55;100.00;95119.50;5084310;28;20171;-74
2023/07/20 04:19:52;;;;;;;1999.90;999.90;;;;;;;19.57;100.00;95125.34;5083834;28;20192;-72
2023/07/20 04:22:17;;;;;;;1999.90;999.90;;;;;;;19.57;100.00;95130.13;5083592;28;20197;-72
2023/07/20 04:24:42;;;;;;;1999.90;999.90;;;;;;;19.54;100.00;95137.34;5083779;28;20177;-73
2023/07/20 04:27:08;;;;;;;1999.90;999.90;;;;;;;19.57;100.00;95124.56;5083659;28;20247;-72
2023/07/20 04:29:33;;;;;;;1999.90;999.90;;;;;;;19.55;100.00;95130.56;5083836;28;20179;-72
2023/07/20 04:31:59;;;;;;;1999.90;999.90;;;;;;;19.52;100.00;95146.13;5083800;28;20197;-71
2023/07/20 04:34:24;;;;;;;1999.90;999.90;;;;;;;19.59;100.00;95138.75;5084124;28;20173;-72
2023/07/20 04:36:49;;;;;;;1999.90;999.90;;;;;;;19.62;100.00;95141.31;5083485;28;20245;-73
2023/07/20 04:39:15;;;;;;;1999.90;999.90;;;;;;;19.66;100.00;95150.25;5084113;28;20178;-76
2023/07/20 04:41:40;;;;;;;1999.90;999.90;;;;;;;19.71;100.00;95152.41;5083907;28;20200;-72
2023/07/20 04:44:05;;;;;;;1999.90;999.90;;;;;;;19.77;100.00;95155.28;5083987;28;20173;-77
2023/07/20 04:46:31;;;;;;;1999.90;999.90;;;;;;;19.80;100.00;95155.13;5083357;28;20175;-75
2023/07/20 04:48:56;;;;;;;1999.90;999.90;;;;;;;19.86;100.00;95169.09;5083375;28;20180;-75
2023/07/20 04:51:22;;;;;;;1999.90;999.90;;;;;;;19.91;100.00;95166.47;5083464;28;20214;-77
2023/07/20 04:53:47;;;;;;;1999.90;999.90;;;;;;;19.94;100.00;95165.53;5083636;28;20221;-74
2023/07/20 04:56:13;;;;;;;1999.90;999.90;;;;;;;19.99;100.00;95173.19;5083339;28;20205;-73
2023/07/20 04:58:38;;;;;;;1999.90;999.90;;;;;;;20.05;100.00;95182.41;5083250;28;20178;-75
2023/07/20 05:01:04;;;;;;;1999.90;999.90;;;;;;;20.15;100.00;95177.63;5083201;28;20174;-75
2023/07/20 05:03:29;;;;;;;1999.90;999.90;;;;;;;20.15;100.00;95186.72;5083704;28;20209;-74
2023/07/20 05:05:55;;;;;;;1999.90;999.90;;;;;;;20.05;100.00;95187.19;5083419;28;20222;-74
2023/07/20 05:08:22;;;;;;;1999.90;999.90;;;;;;;20.29;100.00;95194.31;5083752;28;20166;-73
2023/07/20 05:10:47;;;;;;;1999.90;999.90;;;;;;;20.31;100.00;95194.63;5083270;28;20176;-72
2023/07/20 05:13:12;;;;;;;1999.90;999.90;;;;;;;20.34;100.00;95199.25;5083139;28;20197;-73
2023/07/20 05:15:38;;;;;;;1999.90;999.90;;;;;;;20.30;100.00;95204.22;5083599;28;20181;-70
2023/07/20 05:18:03;;;;;;;1999.90;999.90;;;;;;;20.34;100.00;95204.81;5083104;28;20176;-71
2023/07/20 05:20:29;;;;;;;1999.90;999.90;;;;;;;20.36;100.00;95205.09;5083544;28;20169;-71
2023/07/20 05:22:54;;;;;;;1999.90;999.90;;;;;;;20.42;100.00;95208.75;5083520;28;20210;-69
2023/07/20 05:25:22;;;;;;;1999.90;999.90;;;;;;;20.55;100.00;95216.84;5084931;28;20173;-69
2023/07/20 05:27:48;;;;;;;1999.90;999.90;;;;;;;20.56;100.00;95213.59;5086535;28;20173;-73
2023/07/20 05:30:13;;;;;;;1999.90;999.90;;;;;;;20.44;100.00;95209.06;5086768;28;20180;-72
2023/07/20 05:32:38;;;;;;;1999.90;999.90;;;;;;;20.44;100.00;95208.28;5086962;28;20208;-73
2023/07/20 05:35:04;;;;;;;1999.90;999.90;;;;;;;20.49;100.00;95213.19;5086693;28;20242;-69
2023/07/20 05:37:30;;;;;;;1999.90;999.90;;;;;;;20.57;100.00;95217.16;5086562;28;20173;-73
2023/07/20 05:39:55;;;;;;;1999.90;999.90;;;;;;;20.60;100.00;95216.97;5086328;28;20222;-71
2023/07/20 05:42:20;;;;;;;1999.90;999.90;;;;;;;20.60;100.00;95222.53;5086530;28;20212;-73
2023/07/20 05:44:48;;;;;;;1999.90;999.90;;;;;;;20.64;100.00;95220.34;5086698;28;20180;-72
2023/07/20 05:47:13;;;;;;;1999.90;999.90;;;;;;;20.70;100.00;95221.22;5086268;28;20177;-73
2023/07/20 05:49:38;;;;;;;1999.90;999.90;;;;;;;20.82;100.00;95222.22;5086543;28;20173;-71
2023/07/20 05:52:04;;;;;;;1999.90;999.90;;;;;;;20.80;100.00;95231.00;5086239;28;20179;-70
2023/07/20 05:54:29;;;;;;;1999.90;999.90;;;;;;;20.79;100.00;95223.94;5086088;28;20173;-68
2023/07/20 05:56:55;;;;;;;1999.90;999.90;;;;;;;20.92;100.00;95232.03;5086249;28;20177;-71
2023/07/20 05:59:20;;;;;;;1999.90;999.90;;;;;;;20.83;100.00;95229.31;5085933;28;20193;-76
2023/07/20 06:01:48;;;;;;;1999.90;999.90;;;;;;;20.91;100.00;95236.78;5086365;28;20212;-73
2023/07/20 06:04:13;;;;;;;1999.90;999.90;;;;;;;21.07;100.00;95236.41;5085934;28;20178;-72
2023/07/20 06:06:39;;;;;;;1999.90;999.90;;;;;;;21.14;100.00;95244.38;5086260;28;20275;-70
2023/07/20 06:09:07;;;;;;;1999.90;999.90;;;;;;;21.15;100.00;95239.56;5086021;28;20201;-69
2023/07/20 06:11:33;;;;;;;1999.90;999.90;;;;;;;21.25;100.00;95238.25;5086280;28;20178;-69
2023/07/20 06:13:58;;;;;;;1999.90;999.90;;;;;;;21.45;100.00;95241.19;5086080;28;20181;-69
2023/07/20 06:16:23;;;;;;;1999.90;999.90;;;;;;;21.61;100.00;95252.63;5085873;28;20169;-72
2023/07/20 06:18:49;;;;;;;1999.90;999.90;;;;;;;21.73;100.00;95251.59;5085596;28;20188;-67
2023/07/20 06:21:14;;;;;;;1999.90;999.90;;;;;;;21.97;100.00;95249.47;5085517;28;20173;-70
2023/07/20 06:23:40;;;;;;;1999.90;999.90;;;;;;;22.08;100.00;95246.88;5085364;28;20170;-68
2023/07/20 06:26:07;;;;;;;1999.90;999.90;;;;;;;22.40;100.00;95247.88;5085964;28;20169;-69
2023/07/20 06:28:32;;;;;;;1999.90;999.90;;;;;;;22.64;100.00;95256.09;5085429;28;20169;-69
2023/07/20 06:31:02;;;;;;;1999.90;999.90;;;;;;;22.95;100.00;95253.50;5085414;28;20219;-67
2023/07/20 06:33:27;;;;;;;1999.90;999.90;;;;;;;23.16;100.00;95255.78;5085803;28;20173;-68
2023/07/20 06:35:52;;;;;;;1999.90;999.90;;;;;;;22.89;100.00;95255.44;5085080;28;20169;-67
2023/07/20 06:38:18;;;;;;;1999.90;999.90;;;;;;;22.48;100.00;95245.50;5085440;28;20177;-68
2023/07/20 06:40:46;;;;;;;1999.90;999.90;;;;;;;22.67;100.00;95241.19;5085275;28;20177;-69
2023/07/20 06:43:11;;;;;;;1999.90;999.90;;;;;;;22.65;100.00;95252.06;5085245;28;20272;-69
2023/07/20 06:45:37;;;;;;;1999.90;999.90;;;;;;;22.64;100.00;95244.94;5085003;28;20169;-69
2023/07/20 06:48:02;;;;;;;1999.90;999.90;;;;;;;22.55;100.00;95247.88;5084939;28;20170;-69
2023/07/20 06:50:27;;;;;;;1999.90;999.90;;;;;;;22.29;100.00;95253.28;5084874;28;20199;-68
2023/07/20 06:52:53;;;;;;;1999.90;999.90;;;;;;;22.28;100.00;95243.38;5084730;28;20209;-69
2023/07/20 06:55:18;;;;;;;1999.90;999.90;;;;;;;22.51;100.00;95244.53;5084861;28;20174;-68
2023/07/20 06:57:43;;;;;;;1999.90;999.90;;;;;;;22.98;100.00;95246.94;5084838;28;20176;-67
2023/07/20 07:00:09;;;;;;;1999.90;999.90;;;;;;;23.04;100.00;95251.34;5084732;28;20204;-67
2023/07/20 07:02:35;;;;;;;1999.90;999.90;;;;;;;24.21;100.00;95259.72;5084570;28;20201;-67
2023/07/20 07:05:01;;;;;;;1999.90;999.90;;;;;;;24.67;100.00;95254.75;5085272;28;20209;-67
2023/07/20 07:07:26;;;;;;;1999.90;999.90;;;;;;;24.42;100.00;95244.41;5085317;28;20214;-66
2023/07/20 07:09:52;;;;;;;1999.90;999.90;;;;;;;24.56;100.00;95243.47;5084284;28;20170;-66
2023/07/20 07:12:17;;;;;;;1999.90;999.90;;;;;;;25.12;100.00;95245.34;5084493;28;20203;-66
2023/07/20 07:14:42;;;;;;;1999.90;999.90;;;;;;;25.77;95.76;95244.06;5084470;28;20173;-66
2023/07/20 07:17:08;;;;;;;1999.90;999.90;;;;;;;26.19;92.77;95251.53;5084530;28;20180;-66
2023/07/20 07:19:33;;;;;;;1999.90;999.90;;;;;;;27.09;83.22;95255.25;5084426;28;20207;-67
2023/07/20 07:21:59;;;;;;;1999.90;999.90;;;;;;;28.74;74.54;95264.03;5084304;28;20199;-67
2023/07/20 07:24:24;;;;;;;1999.90;999.90;;;;;;;29.53;66.13;95255.00;5084739;28;20173;-66
2023/07/20 07:26:49;;;;;;;1999.90;999.90;;;;;;;29.93;60.08;95257.56;5084712;28;20208;-66
2023/07/20 07:29:15;;;;;;;1999.90;999.90;;;;;;;29.93;60.08;95257.56;5083925;28;20233;-66
2023/07/20 07:31:40;;;;;;;1999.90;999.90;;;;;;;31.52;50.54;95255.41;5084158;28;20183;-66
2023/07/20 07:34:05;;;;;;;1999.90;999.90;;;;;;;31.38;53.54;95254.66;5084230;28;20177;-65
2023/07/20 07:36:32;;;;;;;1999.90;999.90;;;;;;;30.12;54.58;95260.38;5084442;28;20236;-66
2023/07/20 07:38:57;;;;;;;1999.90;999.90;;;;;;;30.30;55.36;95268.06;5084207;28;20177;-66
2023/07/20 07:41:22;;;;;;;1999.90;999.90;;;;;;;29.03;59.14;95263.25;5083981;28;20170;-65
2023/07/20 07:43:48;;;;;;;1999.90;999.90;;;;;;;28.03;64.75;95264.06;5084536;28;20173;-66
2023/07/20 07:46:14;;;;;;;1999.90;999.90;;;;;;;27.36;67.73;95262.09;5084276;28;20169;-67
2023/07/20 07:48:39;;;;;;;1999.90;999.90;;;;;;;28.01;65.89;95260.25;5083548;28;20169;-67
2023/07/20 07:51:05;;;;;;;1999.90;999.90;;;;;;;28.47;64.04;95256.63;5083847;28;20169;-67
2023/07/20 07:53:32;;;;;;;1999.90;999.90;;;;;;;27.97;64.84;95271.75;5083710;28;20217;-67
2023/07/20 07:55:57;;;;;;;1999.90;999.90;;;;;;;27.81;66.08;95266.97;5084274;28;20173;-66
2023/07/20 07:58:22;;;;;;;1999.90;999.90;;;;;;;27.90;67.40;95266.69;5083531;28;20165;-67
2023/07/20 08:00:48;;;;;;;1999.90;999.90;;;;;;;27.63;66.24;95264.75;5083626;28;20235;-66
2023/07/20 08:03:14;;;;;;;1999.90;999.90;;;;;;;27.64;67.31;95273.97;5083833;28;20201;-67
2023/07/20 08:05:39;;;;;;;1999.90;999.90;;;;;;;27.07;68.01;95269.03;5084256;28;20210;-66
2023/07/20 08:08:05;;;;;;;1999.90;999.90;;;;;;;26.87;71.86;95265.75;5084106;28;20169;-66
2023/07/20 08:10:30;;;;;;;1999.90;999.90;;;;;;;27.28;69.61;95261.09;5083453;28;20169;-67
2023/07/20 08:12:56;;;;;;;1999.90;999.90;;;;;;;27.15;70.32;95264.44;5083840;28;20176;-67
2023/07/20 08:15:21;;;;;;;1999.90;999.90;;;;;;;27.88;68.93;95274.09;5083952;28;20169;-67
2023/07/20 08:17:48;;;;;;;1999.90;999.90;;;;;;;28.47;66.45;95267.84;5083404;28;20175;-67
2023/07/20 08:20:14;;;;;;;1999.90;999.90;;;;;;;27.93;68.78;95273.28;5083657;28;20173;-69
2023/07/20 08:22:40;;;;;;;1999.90;999.90;;;;;;;28.00;70.51;95270.72;5083483;28;20250;-68
2023/07/20 08:25:06;;;;;;;1999.90;999.90;;;;;;;28.77;64.53;95263.72;5083577;28;20201;-67
2023/07/20 08:27:31;;;;;;;1999.90;999.90;;;;;;;29.13;60.82;95256.75;5083700;28;20193;-67
2023/07/20 08:29:57;;;;;;;1999.90;999.90;;;;;;;29.24;60.90;95269.94;5083545;28;20184;-66
2023/07/20 08:32:22;;;;;;;1999.90;999.90;;;;;;;28.61;64.41;95269.50;5083595;28;20223;-67
2023/07/20 08:34:48;;;;;;;1999.90;999.90;;;;;;;27.92;67.90;95280.97;5083634;28;20238;-67
2023/07/20 08:37:13;;;;;;;1999.90;999.90;;;;;;;27.73;68.11;95274.41;5083520;28;20192;-67
2023/07/20 08:39:38;;;;;;;1999.90;999.90;;;;;;;27.26;73.30;95275.63;5083545;28;20166;-67
2023/07/20 08:42:06;;;;;;;1999.90;999.90;;;;;;;27.41;73.60;95270.47;5083424;28;20205;-66
2023/07/20 08:44:36;;;;;;;1999.90;999.90;;;;;;;28.83;66.37;95264.44;5083814;28;20173;-67
2023/07/20 08:47:05;;;;;;;1999.90;999.90;;;;;;;30.03;60.80;95264.34;5083981;28;20246;-67
2023/07/20 08:49:34;;;;;;;1999.90;999.90;;;;;;;29.72;60.97;95270.63;5083351;28;20169;-66
2023/07/20 08:52:00;;;;;;;1999.90;999.90;;;;;;;29.81;59.64;95272.31;5083265;28;20252;-67
2023/07/20 08:54:29;;;;;;;1999.90;999.90;;;;;;;29.44;61.15;95270.22;5083930;28;20169;-66
2023/07/20 08:56:56;;;;;;;1999.90;999.90;;;;;;;29.88;58.97;95266.09;5083194;28;20196;-67
2023/07/20 08:59:24;;;;;;;1999.90;999.90;;;;;;;29.85;58.53;95269.97;5083532;28;20196;-66
2023/07/20 09:01:52;;;;;;;1999.90;999.90;;;;;;;29.80;57.15;95268.75;5086988;28;20197;-67
2023/07/20 09:04:17;;;;;;;1999.90;999.90;;;;;;;29.67;57.21;95265.06;5087393;28;20165;-67
2023/07/20 09:06:43;;;;;;;1999.90;999.90;;;;;;;30.39;58.37;95268.44;5086851;28;20165;-67
2023/07/20 09:09:08;;;;;;;1999.90;999.90;;;;;;;30.01;56.10;95266.16;5087276;28;20173;-67
2023/07/20 09:11:33;;;;;;;1999.90;999.90;;;;;;;31.06;54.12;95262.41;5086998;28;20176;-66
2023/07/20 09:14:17;;;;;;;1999.90;999.90;;;;;;;31.37;51.70;95267.25;5086884;28;20188;-67
2023/07/20 09:16:56;;;;;;;1999.90;999.90;;;;;;;30.92;52.30;95261.66;5086831;28;20165;-66
2023/07/20 09:19:22;;;;;;;1999.90;999.90;;;;;;;31.18;52.73;95249.63;5087266;28;20169;-66
2023/07/20 09:21:52;;;;;;;1999.90;999.90;;;;;;;32.34;48.41;95253.63;5086579;28;20204;-67
2023/07/20 09:24:19;;;;;;;1999.90;999.90;;;;;;;33.31;45.52;95247.28;5086637;28;20242;-66
2023/07/20 09:26:48;;;;;;;1999.90;999.90;;;;;;;33.40;45.09;95244.72;5087144;28;20170;-66
2023/07/20 09:29:14;;;;;;;1999.90;999.90;;;;;;;33.25;45.27;95243.88;5086630;28;20173;-66
2023/07/20 09:31:40;;;;;;;1999.90;999.90;;;;;;;33.96;43.20;95243.13;5086553;28;20169;-66
2023/07/20 09:34:07;;;;;;;1999.90;999.90;;;;;;;34.57;39.98;95239.16;5086489;28;20199;-65
2023/07/20 09:36:36;;;;;;;1999.90;999.90;;;;;;;34.68;38.96;95244.47;5086910;28;20227;-67
2023/07/20 09:39:03;;;;;;;1999.90;999.90;;;;;;;34.44;39.23;95242.19;5086419;28;20204;-66
2023/07/20 09:41:29;;;;;;;1999.90;999.90;;;;;;;33.46;41.54;95244.56;5086280;28;20169;-65
2023/07/20 09:43:54;;;;;;;1999.90;999.90;;;;;;;32.42;43.83;95248.81;5086808;28;20241;-65
2023/07/20 09:46:20;;;;;;;1999.90;999.90;;;;;;;32.54;44.83;95249.28;5086651;28;20169;-65
2023/07/20 09:48:55;;;;;;;1999.90;999.90;;;;;;;32.40;44.87;95251.41;5086879;28;20169;-65
2023/07/20 09:51:23;;;;;;;1999.90;999.90;;;;;;;33.56;43.10;95243.50;5085996;28;20340;-65
2023/07/20 09:53:49;;;;;;;1999.90;999.90;;;;;;;32.85;42.17;95251.84;5086067;28;20220;-66
2023/07/20 09:56:17;;;;;;;1999.90;999.90;;;;;;;31.90;45.25;95242.56;5086097;28;20173;-66
2023/07/20 09:58:45;;;;;;;1999.90;999.90;;;;;;;31.47;47.12;95240.09;5085935;28;20165;-66
2023/07/20 10:01:14;;;;;;;1999.90;999.90;;;;;;;31.25;47.97;95229.25;5086219;28;20197;-66
2023/07/20 10:03:45;;;;;;;1999.90;999.90;;;;;;;31.14;49.28;95237.91;5086728;28;20314;-66
2023/07/20 10:06:15;;;;;;;1999.90;999.90;;;;;;;31.54;48.72;95238.66;5086232;28;20168;-65
2023/07/20 10:08:42;;;;;;;1999.90;999.90;;;;;;;31.00;47.80;95242.75;5086115;28;20165;-66
2023/07/20 10:11:08;;;;;;;1999.90;999.90;;;;;;;29.81;54.64;95242.09;5085461;28;20249;-65
2023/07/20 10:13:38;;;;;;;1999.90;999.90;;;;;;;29.61;55.73;95234.16;5085646;28;20173;-66
2023/07/20 10:16:09;;;;;;;1999.90;999.90;;;;;;;30.09;53.70;95241.72;5085693;28;20165;-65
2023/07/20 10:18:45;;;;;;;1999.90;999.90;;;;;;;30.61;52.61;95244.72;5085957;28;20162;-66
2023/07/20 10:21:12;;;;;;;1999.90;999.90;;;;;;;29.93;53.32;95237.09;5086165;28;20169;-65
2023/07/20 10:23:39;;;;;;;1999.90;999.90;;;;;;;30.17;53.30;95234.19;5085415;28;20224;-67
2023/07/20 10:26:05;;;;;;;1999.90;999.90;;;;;;;30.23;55.13;95235.59;5085465;28;20215;-65
2023/07/20 10:28:31;;;;;;;1999.90;999.90;;;;;;;30.25;56.44;95235.06;5085250;28;20165;-66
2023/07/20 10:30:56;;;;;;;1999.90;999.90;;;;;;;29.62;55.59;95226.50;5085862;28;20172;-66
2023/07/20 10:33:22;;;;;;;1999.90;999.90;;;;;;;29.50;57.74;95230.72;5085413;28;20169;-66
2023/07/20 10:36:01;;;;;;;1999.90;999.90;;;;;;;29.08;59.11;95225.84;5085312;28;20172;-65
2023/07/20 10:38:46;;;;;;;1999.90;999.90;;;;;;;28.70;63.36;95224.19;5085064;28;20169;-66
2023/07/20 10:41:20;;;;;;;1999.90;999.90;;;;;;;30.41;57.02;95214.31;5044782;28;20177;-65
2023/07/20 10:43:47;;;;;;;1999.90;999.90;;;;;;;31.79;51.37;95208.88;5085602;28;20177;-66
2023/07/20 10:46:12;;;;;;;1999.90;999.90;;;;;;;32.01;48.27;95209.13;5084889;28;20219;-66
2023/07/20 10:49:02;;;;;;;1999.90;999.90;;;;;;;32.07;49.85;95212.59;5084811;28;20177;-66